createdAt,value
2022-10-11T00:00:34.087Z,15.44
2022-10-11T00:10:35.412Z,15.31
2022-10-11T00:20:36.743Z,15.31
2022-10-11T00:30:38.095Z,15.31
2022-10-11T00:40:39.440Z,15.14
2022-10-11T00:50:40.740Z,15.07
2022-10-11T01:00:42.778Z,15.13
2022-10-11T01:10:44.126Z,15.10
2022-10-11T01:20:45.747Z,15.04
2022-10-11T01:30:47.065Z,15.03
2022-10-11T01:40:48.416Z,14.84
2022-10-11T01:50:49.770Z,14.71
2022-10-11T02:00:51.254Z,14.74
2022-10-11T02:10:52.850Z,14.71
2022-10-11T02:20:54.159Z,14.62
2022-10-11T02:30:55.467Z,14.53
2022-10-11T02:40:56.771Z,14.36
2022-10-11T02:50:58.167Z,14.34
2022-10-11T03:00:59.771Z,14.41
2022-10-11T03:11:01.086Z,14.16
2022-10-11T03:21:02.455Z,13.93
2022-10-11T03:31:03.809Z,13.82
2022-10-11T03:41:05.141Z,13.65
2022-10-11T03:51:06.462Z,13.54
2022-10-11T04:01:07.801Z,13.50
2022-10-11T04:11:09.117Z,13.49
2022-10-11T04:21:10.449Z,13.31
2022-10-11T04:31:11.816Z,13.00
2022-10-11T04:41:13.188Z,12.95
2022-10-11T04:51:14.545Z,12.61
2022-10-11T05:01:16.123Z,12.42
2022-10-11T05:11:17.547Z,12.23
2022-10-11T05:21:18.854Z,12.17
2022-10-11T05:31:20.249Z,12.26
2022-10-11T05:41:21.639Z,12.13
2022-10-11T05:51:22.991Z,12.10
2022-10-11T06:01:24.451Z,11.91
2022-10-11T06:11:25.876Z,11.77
2022-10-11T06:21:27.206Z,11.73
2022-10-11T06:31:28.585Z,11.49
2022-10-11T06:41:29.892Z,11.64
2022-10-11T06:51:31.254Z,11.63
2022-10-11T07:01:32.832Z,11.72
2022-10-11T07:11:34.130Z,11.66
2022-10-11T07:21:35.527Z,11.54
2022-10-11T07:31:36.874Z,11.52
2022-10-11T07:41:44.623Z,11.86
2022-10-11T07:51:46.892Z,12.06
2022-10-11T08:01:48.327Z,11.81
2022-10-11T08:11:49.702Z,11.90
2022-10-11T08:21:51.050Z,11.97
2022-10-11T08:31:52.706Z,12.32
2022-10-11T08:41:54.168Z,12.37
2022-10-11T08:52:00.057Z,12.14
2022-10-11T09:02:01.582Z,12.11
2022-10-11T09:12:03.404Z,12.25
2022-10-11T09:22:04.712Z,12.32
2022-10-11T09:32:06.039Z,12.49
2022-10-11T09:42:07.909Z,12.47
2022-10-11T09:52:09.267Z,12.63
2022-10-11T10:02:10.651Z,13.00
2022-10-11T10:12:12.179Z,13.41
2022-10-11T10:22:13.520Z,13.44
2022-10-11T10:32:15.428Z,13.87
2022-10-11T10:42:16.875Z,13.97
2022-10-11T10:52:18.509Z,14.14
2022-10-11T11:02:40.753Z,14.62
2022-10-11T11:12:41.456Z,14.22
2022-10-11T11:22:42.844Z,14.21
2022-10-11T11:32:45.853Z,14.61
2022-10-11T11:42:47.432Z,14.88
2022-10-11T11:52:48.755Z,14.96
2022-10-11T12:02:50.137Z,14.93
2022-10-11T12:12:51.404Z,15.19
2022-10-11T12:22:52.660Z,15.31
2022-10-11T12:32:54.021Z,15.28
2022-10-11T12:42:55.392Z,15.63
2022-10-11T12:52:56.637Z,15.44
2022-10-11T13:02:58.069Z,15.68
2022-10-11T13:13:00.114Z,15.92
2022-10-11T13:23:01.623Z,15.83
2022-10-11T13:33:03.009Z,15.98
2022-10-11T13:43:05.167Z,15.90
2022-10-11T13:53:06.518Z,16.08
2022-10-11T14:03:07.909Z,16.16
2022-10-11T14:13:09.197Z,16.13
2022-10-11T14:23:10.672Z,16.20
2022-10-11T14:33:11.987Z,16.00
2022-10-11T14:43:13.228Z,15.81
2022-10-11T14:53:14.484Z,15.83
2022-10-11T15:03:15.753Z,15.74
2022-10-11T15:13:17.004Z,15.70
2022-10-11T15:23:18.589Z,15.48
2022-10-11T15:33:19.943Z,15.44
2022-10-11T15:43:24.730Z,15.36
2022-10-11T15:53:28.529Z,15.04
2022-10-11T16:03:30.049Z,14.92
2022-10-11T16:13:31.503Z,14.81
2022-10-11T16:23:33.859Z,14.38
2022-10-11T16:33:35.209Z,14.20
2022-10-11T16:43:36.536Z,13.92
2022-10-11T16:53:37.906Z,13.69
2022-10-11T17:03:39.276Z,13.44
2022-10-11T17:13:40.513Z,13.21
2022-10-11T17:23:41.928Z,13.02
2022-10-11T17:33:43.507Z,12.73
2022-10-11T17:43:44.864Z,12.65
2022-10-11T17:53:46.175Z,12.34
2022-10-11T18:03:47.921Z,12.18
2022-10-11T18:13:49.281Z,11.93
2022-10-11T18:23:50.591Z,11.76
2022-10-11T18:33:51.943Z,11.68
2022-10-11T18:43:53.312Z,11.61
2022-10-11T18:53:54.930Z,11.47
2022-10-11T19:03:59.238Z,11.46
2022-10-11T19:14:02.100Z,11.30
2022-10-11T19:24:03.473Z,11.44
2022-10-11T19:34:04.804Z,11.67
2022-10-11T19:44:07.475Z,11.84
2022-10-11T19:54:08.731Z,11.85
2022-10-11T20:04:18.806Z,11.96
2022-10-11T20:14:31.939Z,11.99
2022-10-11T20:24:35.345Z,11.99
2022-10-11T20:34:39.507Z,11.98
2022-10-11T20:44:40.891Z,11.92
2022-10-11T20:54:42.464Z,12.01
2022-10-11T21:04:44.258Z,12.17
2022-10-11T21:14:45.658Z,12.16
2022-10-11T21:24:46.979Z,12.09
2022-10-11T21:34:48.401Z,12.01
2022-10-11T21:44:49.766Z,12.05
2022-10-11T21:54:51.095Z,12.00
2022-10-11T22:04:52.518Z,11.78
2022-10-11T22:14:53.857Z,11.66
2022-10-11T22:24:55.205Z,11.66
2022-10-11T22:34:56.610Z,11.52
2022-10-11T22:44:57.932Z,11.50
2022-10-11T22:54:59.255Z,11.45
2022-10-11T23:05:00.623Z,11.21
2022-10-11T23:15:02.000Z,11.15
2022-10-11T23:25:03.367Z,10.89
2022-10-11T23:35:05.338Z,10.55
2022-10-11T23:45:06.701Z,10.32
2022-10-11T23:55:08.050Z,10.12
